createdAt,value
2018-07-11T00:00:33.789Z,0.00
2018-07-11T00:01:33.962Z,0.00
2018-07-11T00:02:34.138Z,0.00
2018-07-11T00:03:34.314Z,0.00
2018-07-11T00:04:34.491Z,0.00
2018-07-11T00:05:34.674Z,0.00
2018-07-11T00:06:34.852Z,0.00
2018-07-11T00:07:35.034Z,0.00
2018-07-11T00:08:35.212Z,0.00
2018-07-11T00:09:35.391Z,0.00
2018-07-11T00:10:35.568Z,0.00
2018-07-11T00:11:35.743Z,0.00
2018-07-11T00:12:35.923Z,0.00
2018-07-11T00:13:36.114Z,0.00
2018-07-11T00:14:36.285Z,0.00
2018-07-11T00:15:36.511Z,0.00
2018-07-11T00:16:36.644Z,0.00
2018-07-11T00:17:36.824Z,0.00
2018-07-11T00:18:37.002Z,0.00
2018-07-11T00:19:37.188Z,0.00
2018-07-11T00:20:37.368Z,0.00
2018-07-11T00:21:37.557Z,0.00
2018-07-11T00:22:37.742Z,0.00
2018-07-11T00:23:37.917Z,0.00
2018-07-11T00:24:38.094Z,0.00
2018-07-11T00:25:38.270Z,0.00
2018-07-11T00:26:38.453Z,0.00
2018-07-11T00:27:38.632Z,0.00
2018-07-11T00:28:38.807Z,0.00
2018-07-11T00:29:38.988Z,0.00
2018-07-11T00:30:39.171Z,0.00
2018-07-11T00:31:39.348Z,0.00
2018-07-11T00:32:39.530Z,0.00
2018-07-11T00:33:39.705Z,0.00
2018-07-11T00:34:39.886Z,0.00
2018-07-11T00:35:40.072Z,0.00
2018-07-11T00:36:40.256Z,0.00
2018-07-11T00:37:40.434Z,0.00
2018-07-11T00:38:40.612Z,0.00
2018-07-11T00:39:40.789Z,0.00
2018-07-11T00:40:40.967Z,0.00
2018-07-11T00:41:41.158Z,0.00
2018-07-11T00:42:41.330Z,0.00
2018-07-11T00:43:41.510Z,0.00
2018-07-11T00:44:41.693Z,0.00
2018-07-11T00:45:41.868Z,0.00
2018-07-11T00:46:42.045Z,0.00
2018-07-11T00:47:42.220Z,0.00
2018-07-11T00:48:42.402Z,0.00
2018-07-11T00:49:42.578Z,0.00
2018-07-11T00:50:42.763Z,0.00
2018-07-11T00:51:42.940Z,0.00
2018-07-11T00:52:43.124Z,0.00
2018-07-11T00:53:43.315Z,0.00
2018-07-11T00:54:43.488Z,0.00
2018-07-11T00:55:43.669Z,0.00
2018-07-11T00:56:43.847Z,0.00
2018-07-11T00:57:44.022Z,0.00
2018-07-11T00:58:44.199Z,0.00
2018-07-11T00:59:44.372Z,0.00
2018-07-11T01:00:44.550Z,0.00
2018-07-11T01:01:44.724Z,0.00
2018-07-11T01:02:44.904Z,0.00
2018-07-11T01:03:45.095Z,0.00
2018-07-11T01:04:45.265Z,0.00
2018-07-11T01:05:45.472Z,0.00
2018-07-11T01:06:45.646Z,0.00
2018-07-11T01:07:45.835Z,0.00
2018-07-11T01:08:46.016Z,0.00
2018-07-11T01:09:46.204Z,0.00
2018-07-11T01:10:46.386Z,0.00
2018-07-11T01:11:46.561Z,0.00
2018-07-11T01:12:46.757Z,0.00
2018-07-11T01:13:46.929Z,0.00
2018-07-11T01:14:47.101Z,0.00
2018-07-11T01:15:47.289Z,0.00
2018-07-11T01:16:47.488Z,0.00
2018-07-11T01:17:47.661Z,0.00
2018-07-11T01:18:47.840Z,0.00
2018-07-11T01:19:48.024Z,0.00
2018-07-11T01:20:48.209Z,0.00
2018-07-11T01:21:48.387Z,0.00
2018-07-11T01:22:48.577Z,0.00
2018-07-11T01:23:48.760Z,0.00
2018-07-11T01:24:48.940Z,0.00
2018-07-11T01:25:49.120Z,0.00
2018-07-11T01:26:49.303Z,0.00
2018-07-11T01:27:49.496Z,0.00
2018-07-11T01:28:49.676Z,0.00
2018-07-11T01:29:49.857Z,0.00
2018-07-11T01:30:50.042Z,0.00
2018-07-11T01:31:50.217Z,0.00
2018-07-11T01:32:50.398Z,0.00
2018-07-11T01:33:50.573Z,0.00
2018-07-11T01:34:50.754Z,0.00
2018-07-11T01:35:50.941Z,0.00
2018-07-11T01:36:51.119Z,0.00
2018-07-11T01:37:51.307Z,0.00
2018-07-11T01:38:51.493Z,0.00
2018-07-11T01:39:51.672Z,0.00
2018-07-11T01:40:51.859Z,0.00
2018-07-11T01:41:52.037Z,0.00
2018-07-11T01:42:52.217Z,0.00
2018-07-11T01:43:52.398Z,0.00
2018-07-11T01:44:52.575Z,0.00
2018-07-11T01:45:52.757Z,0.00
2018-07-11T01:46:52.935Z,0.00
2018-07-11T01:47:53.121Z,0.00
2018-07-11T01:48:53.303Z,0.00
2018-07-11T01:49:53.488Z,0.00
2018-07-11T01:50:53.672Z,0.00
2018-07-11T01:51:53.852Z,0.00
2018-07-11T01:52:54.037Z,0.00
2018-07-11T01:53:54.222Z,0.00
2018-07-11T01:54:54.405Z,0.00
2018-07-11T01:55:54.588Z,0.00
2018-07-11T01:56:54.772Z,0.00
2018-07-11T01:57:54.951Z,0.00
2018-07-11T01:58:55.132Z,0.00
2018-07-11T01:59:55.321Z,0.00
2018-07-11T02:00:55.495Z,0.00
2018-07-11T02:01:55.679Z,0.00
2018-07-11T02:02:55.872Z,0.00
2018-07-11T02:03:56.051Z,0.00
2018-07-11T02:04:56.238Z,0.00
2018-07-11T02:05:56.417Z,0.00
2018-07-11T02:07:00.761Z,0.00
2018-07-11T02:08:01.383Z,0.00
2018-07-11T02:09:01.878Z,0.00
2018-07-11T02:10:02.247Z,0.00
2018-07-11T02:11:00.080Z,0.00
2018-07-11T02:12:02.528Z,0.00
2018-07-11T02:13:01.961Z,0.00
2018-07-11T02:14:00.155Z,0.00
2018-07-11T02:15:01.671Z,0.00
2018-07-11T02:16:01.207Z,0.00
2018-07-11T02:17:03.124Z,0.00
2018-07-11T02:18:02.386Z,0.00
2018-07-11T02:18:59.842Z,0.00
2018-07-11T02:19:58.845Z,0.00
2018-07-11T02:20:59.928Z,0.00
2018-07-11T02:21:59.896Z,0.00
2018-07-11T02:22:59.339Z,0.00
2018-07-11T02:23:59.530Z,0.00
2018-07-11T02:24:59.719Z,0.00
2018-07-11T02:25:59.916Z,0.00
2018-07-11T02:27:00.100Z,0.00
2018-07-11T02:28:00.270Z,0.00
2018-07-11T02:29:00.444Z,0.00
2018-07-11T02:30:00.629Z,0.00
2018-07-11T02:31:00.809Z,0.00
2018-07-11T02:32:00.988Z,0.00
2018-07-11T02:33:01.167Z,0.00
2018-07-11T02:34:01.348Z,0.00
2018-07-11T02:35:01.535Z,0.00
2018-07-11T02:36:01.716Z,0.00
2018-07-11T02:37:01.891Z,0.00
2018-07-11T02:38:02.075Z,0.00
2018-07-11T02:39:02.258Z,0.00
2018-07-11T02:40:02.438Z,0.00
2018-07-11T02:41:02.626Z,0.00
2018-07-11T02:42:02.805Z,0.00
2018-07-11T02:43:02.992Z,0.00
2018-07-11T02:44:03.180Z,0.00
2018-07-11T02:45:03.356Z,0.00
2018-07-11T02:46:03.535Z,0.00
2018-07-11T02:47:03.716Z,0.00
2018-07-11T02:48:03.909Z,0.00
2018-07-11T02:49:04.092Z,0.00
2018-07-11T02:50:04.274Z,0.00
2018-07-11T02:51:04.457Z,0.00
2018-07-11T02:52:04.650Z,4.00
2018-07-11T02:53:04.833Z,4.00
2018-07-11T02:54:05.013Z,4.00
2018-07-11T02:55:05.189Z,4.00
2018-07-11T02:56:05.373Z,0.00
2018-07-11T02:57:05.554Z,4.00
2018-07-11T02:58:05.742Z,4.00
2018-07-11T02:59:05.916Z,4.00
2018-07-11T03:00:06.117Z,4.00
2018-07-11T03:01:06.272Z,4.00
2018-07-11T03:02:06.453Z,8.00
2018-07-11T03:03:06.647Z,8.00
2018-07-11T03:04:06.817Z,8.00
2018-07-11T03:05:07.003Z,4.00
2018-07-11T03:06:07.178Z,8.00
2018-07-11T03:07:07.351Z,8.00
2018-07-11T03:08:07.536Z,8.00
2018-07-11T03:09:07.717Z,12.00
2018-07-11T03:10:07.896Z,12.00
2018-07-11T03:11:08.080Z,16.00
2018-07-11T03:12:08.265Z,20.00
2018-07-11T03:13:08.447Z,20.00
2018-07-11T03:14:08.641Z,20.00
2018-07-11T03:15:08.814Z,32.00
2018-07-11T03:16:08.993Z,36.00
2018-07-11T03:17:09.169Z,40.00
2018-07-11T03:18:09.361Z,44.00
2018-07-11T03:19:09.543Z,56.00
2018-07-11T03:20:09.728Z,60.00
2018-07-11T03:21:09.910Z,56.00
2018-07-11T03:22:10.089Z,56.00
2018-07-11T03:23:10.271Z,56.00
2018-07-11T03:24:10.452Z,60.00
2018-07-11T03:25:10.643Z,60.00
2018-07-11T03:26:10.812Z,64.00
2018-07-11T03:27:10.998Z,68.00
2018-07-11T03:28:11.180Z,76.00
2018-07-11T03:29:11.355Z,88.00
2018-07-11T03:30:11.541Z,100.00
2018-07-11T03:31:11.723Z,112.00
2018-07-11T03:32:11.902Z,120.00
2018-07-11T03:33:12.089Z,128.00
2018-07-11T03:34:12.266Z,132.00
2018-07-11T03:35:12.447Z,164.00
2018-07-11T03:36:12.632Z,180.00
2018-07-11T03:37:12.811Z,168.00
2018-07-11T03:38:12.992Z,132.00
2018-07-11T03:39:13.175Z,116.00
2018-07-11T03:40:13.357Z,104.00
2018-07-11T03:41:13.538Z,100.00
2018-07-11T03:42:13.720Z,108.00
2018-07-11T03:43:13.902Z,120.00
2018-07-11T03:44:14.079Z,136.00
2018-07-11T03:45:14.270Z,136.00
2018-07-11T03:46:14.453Z,136.00
2018-07-11T03:47:14.639Z,152.00
2018-07-11T03:48:14.825Z,172.00
2018-07-11T03:49:14.999Z,176.00
2018-07-11T03:50:15.180Z,188.00
2018-07-11T03:51:15.371Z,224.00
2018-07-11T03:52:15.558Z,300.00
2018-07-11T03:53:15.736Z,324.00
2018-07-11T03:54:15.923Z,324.00
2018-07-11T03:55:16.101Z,324.00
2018-07-11T03:56:16.288Z,324.00
2018-07-11T03:57:16.468Z,332.00
2018-07-11T03:58:19.099Z,336.00
2018-07-11T03:59:19.787Z,328.00
2018-07-11T04:00:17.035Z,312.00
2018-07-11T04:01:17.210Z,288.00
2018-07-11T04:02:17.395Z,264.00
2018-07-11T04:03:17.587Z,236.00
2018-07-11T04:04:17.772Z,220.00
2018-07-11T04:05:17.957Z,204.00
2018-07-11T04:06:18.134Z,188.00
2018-07-11T04:07:18.323Z,196.00
2018-07-11T04:08:18.506Z,220.00
2018-07-11T04:09:18.695Z,244.00
2018-07-11T04:10:18.878Z,252.00
2018-07-11T04:11:19.059Z,260.00
2018-07-11T04:12:19.244Z,268.00
2018-07-11T04:13:19.427Z,328.00
2018-07-11T04:14:19.614Z,392.00
2018-07-11T04:15:19.797Z,404.00
2018-07-11T04:16:19.989Z,452.00
2018-07-11T04:17:20.171Z,508.00
2018-07-11T04:18:20.361Z,548.00
2018-07-11T04:19:20.545Z,516.00
2018-07-11T04:20:20.730Z,496.00
2018-07-11T04:21:20.911Z,468.00
2018-07-11T04:22:21.104Z,452.00
2018-07-11T04:23:21.293Z,480.00
2018-07-11T04:24:21.468Z,496.00
2018-07-11T04:25:21.647Z,488.00
2018-07-11T04:26:21.845Z,488.00
2018-07-11T04:27:22.037Z,468.00
2018-07-11T04:28:22.209Z,508.00
2018-07-11T04:29:22.390Z,524.00
2018-07-11T04:30:22.569Z,560.00
2018-07-11T04:31:22.744Z,584.00
2018-07-11T04:32:22.924Z,624.00
2018-07-11T04:33:23.109Z,656.00
2018-07-11T04:34:23.275Z,652.00
2018-07-11T04:35:23.458Z,600.00
2018-07-11T04:36:23.647Z,524.00
2018-07-11T04:37:23.825Z,460.00
2018-07-11T04:38:24.012Z,440.00
2018-07-11T04:39:24.180Z,436.00
2018-07-11T04:40:24.367Z,440.00
2018-07-11T04:41:24.543Z,428.00
2018-07-11T04:42:24.781Z,416.00
2018-07-11T04:43:24.910Z,416.00
2018-07-11T04:44:25.110Z,420.00
2018-07-11T04:45:25.304Z,416.00
2018-07-11T04:46:25.490Z,412.00
2018-07-11T04:47:25.665Z,420.00
2018-07-11T04:48:25.864Z,428.00
2018-07-11T04:49:26.038Z,448.00
2018-07-11T04:50:26.232Z,476.00
2018-07-11T04:51:26.521Z,520.00
2018-07-11T04:52:26.575Z,564.00
2018-07-11T04:53:26.753Z,612.00
2018-07-11T04:54:26.935Z,648.00
2018-07-11T04:55:27.118Z,684.00
2018-07-11T04:56:30.234Z,704.00
2018-07-11T04:57:29.571Z,712.00
2018-07-11T04:58:29.810Z,696.00
2018-07-11T04:59:28.775Z,676.00
2018-07-11T05:00:28.946Z,644.00
2018-07-11T05:01:28.148Z,612.00
2018-07-11T05:02:31.248Z,612.00
2018-07-11T05:03:28.695Z,660.00
2018-07-11T05:04:29.762Z,752.00
2018-07-11T05:05:30.217Z,804.00
2018-07-11T05:06:29.254Z,892.00
2018-07-11T05:07:29.069Z,1000.00
2018-07-11T05:08:29.231Z,1068.00
2018-07-11T05:09:29.425Z,1108.00
2018-07-11T05:10:29.605Z,1192.00
2018-07-11T05:11:29.819Z,1260.00
2018-07-11T05:12:29.981Z,1264.00
2018-07-11T05:13:30.147Z,1344.00
2018-07-11T05:14:30.331Z,1424.00
2018-07-11T05:15:30.522Z,1408.00
2018-07-11T05:16:30.700Z,1596.00
2018-07-11T05:17:30.881Z,1912.00
2018-07-11T05:18:31.066Z,2340.00
2018-07-11T05:19:31.242Z,2776.00
2018-07-11T05:20:31.427Z,3132.00
2018-07-11T05:21:31.856Z,3456.00
2018-07-11T05:22:31.842Z,3716.00
2018-07-11T05:23:32.036Z,3940.00
2018-07-11T05:24:32.211Z,4140.00
2018-07-11T05:25:32.390Z,4276.00
2018-07-11T05:26:32.658Z,4468.00
2018-07-11T05:27:32.719Z,4732.00
2018-07-11T05:28:32.891Z,4728.00
2018-07-11T05:29:33.092Z,4116.00
2018-07-11T05:30:33.268Z,2968.00
2018-07-11T05:31:33.464Z,2152.00
2018-07-11T05:32:33.654Z,2168.00
2018-07-11T05:33:33.845Z,2476.00
2018-07-11T05:34:34.031Z,2716.00
2018-07-11T05:35:34.207Z,2684.00
2018-07-11T05:36:34.392Z,2504.00
2018-07-11T05:37:34.589Z,2184.00
2018-07-11T05:38:34.777Z,2024.00
2018-07-11T05:39:34.960Z,1960.00
2018-07-11T05:40:35.154Z,1992.00
2018-07-11T05:41:35.369Z,1916.00
2018-07-11T05:42:35.583Z,1628.00
2018-07-11T05:43:36.266Z,1348.00
2018-07-11T05:44:35.877Z,1396.00
2018-07-11T05:45:36.110Z,1508.00
2018-07-11T05:46:36.253Z,1540.00
2018-07-11T05:47:36.436Z,1336.00
2018-07-11T05:48:36.621Z,1044.00
2018-07-11T05:49:37.309Z,844.00
2018-07-11T05:50:38.427Z,824.00
2018-07-11T05:51:37.466Z,872.00
2018-07-11T05:52:37.577Z,812.00
2018-07-11T05:53:37.779Z,720.00
2018-07-11T05:54:38.048Z,656.00
2018-07-11T05:55:38.583Z,616.00
2018-07-11T05:56:38.202Z,624.00
2018-07-11T05:57:38.346Z,644.00
2018-07-11T05:58:38.694Z,596.00
2018-07-11T05:59:38.858Z,600.00
2018-07-11T06:00:38.961Z,636.00
2018-07-11T06:01:39.120Z,724.00
2018-07-11T06:02:39.069Z,864.00
2018-07-11T06:03:39.304Z,820.00
2018-07-11T06:04:39.451Z,788.00
2018-07-11T06:05:39.805Z,784.00
2018-07-11T06:06:40.216Z,820.00
2018-07-11T06:07:40.404Z,948.00
2018-07-11T06:08:40.547Z,1008.00
2018-07-11T06:09:40.137Z,1068.00
2018-07-11T06:10:40.447Z,1088.00
2018-07-11T06:11:41.199Z,1024.00
2018-07-11T06:12:41.120Z,940.00
2018-07-11T06:13:41.111Z,952.00
2018-07-11T06:14:41.290Z,964.00
2018-07-11T06:15:42.106Z,952.00
2018-07-11T06:16:41.615Z,952.00
2018-07-11T06:17:41.464Z,976.00
2018-07-11T06:18:41.635Z,1020.00
2018-07-11T06:19:42.285Z,1096.00
2018-07-11T06:20:42.020Z,1144.00
2018-07-11T06:21:42.072Z,1172.00
2018-07-11T06:22:42.352Z,1256.00
2018-07-11T06:23:42.401Z,1404.00
2018-07-11T06:24:42.585Z,1476.00
2018-07-11T06:25:42.768Z,1412.00
2018-07-11T06:26:43.714Z,1356.00
2018-07-11T06:27:43.276Z,1448.00
2018-07-11T06:28:43.599Z,1712.00
2018-07-11T06:29:44.378Z,2032.00
2018-07-11T06:30:44.385Z,2324.00
2018-07-11T06:31:44.471Z,2520.00
2018-07-11T06:32:47.484Z,2604.00
2018-07-11T06:33:45.458Z,2664.00
2018-07-11T06:34:45.870Z,2712.00
2018-07-11T06:35:45.920Z,2748.00
2018-07-11T06:36:45.149Z,2780.00
2018-07-11T06:37:45.794Z,2852.00
2018-07-11T06:38:46.104Z,2948.00
2018-07-11T06:39:45.843Z,3028.00
2018-07-11T06:40:46.393Z,3096.00
2018-07-11T06:41:46.290Z,3148.00
2018-07-11T06:42:47.696Z,3292.00
2018-07-11T06:43:48.544Z,3492.00
2018-07-11T06:44:48.577Z,3636.00
2018-07-11T06:45:47.902Z,3736.00
2018-07-11T06:46:49.367Z,3844.00
2018-07-11T06:47:48.304Z,3916.00
2018-07-11T06:48:47.817Z,3988.00
2018-07-11T06:49:48.316Z,4096.00
2018-07-11T06:50:48.615Z,4196.00
2018-07-11T06:51:47.167Z,4224.00
2018-07-11T06:52:47.352Z,4200.00
2018-07-11T06:53:47.581Z,4248.00
2018-07-11T06:54:47.779Z,4268.00
2018-07-11T06:55:48.064Z,4260.00
2018-07-11T06:56:48.200Z,4272.00
2018-07-11T06:57:48.268Z,4340.00
2018-07-11T06:58:48.656Z,4456.00
2018-07-11T06:59:48.614Z,4572.00
2018-07-11T07:00:50.197Z,4600.00
2018-07-11T07:01:50.077Z,4612.00
2018-07-11T07:02:49.745Z,4624.00
2018-07-11T07:03:49.518Z,4704.00
2018-07-11T07:04:50.092Z,4932.00
2018-07-11T07:05:50.015Z,5340.00
2018-07-11T07:06:50.618Z,5932.00
2018-07-11T07:07:50.227Z,6716.00
2018-07-11T07:08:51.267Z,7572.00
2018-07-11T07:09:50.490Z,8136.00
2018-07-11T07:10:51.222Z,8408.00
2018-07-11T07:11:50.805Z,8436.00
2018-07-11T07:12:50.946Z,8608.00
2018-07-11T07:13:51.228Z,8344.00
2018-07-11T07:14:51.380Z,7744.00
2018-07-11T07:15:51.579Z,7324.00
2018-07-11T07:16:51.579Z,6768.00
2018-07-11T07:17:51.919Z,6052.00
2018-07-11T07:18:51.926Z,5552.00
2018-07-11T07:19:52.199Z,5216.00
2018-07-11T07:20:52.880Z,5008.00
2018-07-11T07:21:52.936Z,4864.00
2018-07-11T07:22:53.210Z,4760.00
2018-07-11T07:23:53.113Z,4728.00
2018-07-11T07:24:53.148Z,4696.00
2018-07-11T07:25:53.676Z,4640.00
2018-07-11T07:26:53.429Z,4548.00
2018-07-11T07:27:53.628Z,4580.00
2018-07-11T07:28:53.700Z,4656.00
2018-07-11T07:29:53.682Z,4760.00
2018-07-11T07:30:53.878Z,4824.00
2018-07-11T07:31:54.069Z,4844.00
2018-07-11T07:32:58.001Z,4956.00
2018-07-11T07:33:54.463Z,5188.00
2018-07-11T07:34:54.673Z,5472.00
2018-07-11T07:35:54.835Z,5804.00
2018-07-11T07:36:55.055Z,6392.00
2018-07-11T07:37:55.246Z,7504.00
2018-07-11T07:38:55.321Z,7492.00
2018-07-11T07:39:55.510Z,6976.00
2018-07-11T07:40:55.902Z,7628.00
2018-07-11T07:41:56.062Z,7748.00
2018-07-11T07:42:56.453Z,9304.00
2018-07-11T07:43:57.166Z,14368.00
2018-07-11T07:44:57.236Z,58784.00
2018-07-11T07:45:56.845Z,105024.00
2018-07-11T07:46:56.831Z,95520.00
2018-07-11T07:47:57.458Z,37216.00
2018-07-11T07:48:57.583Z,39584.00
2018-07-11T07:49:58.755Z,59328.00
2018-07-11T07:50:57.786Z,32192.00
2018-07-11T07:51:58.077Z,19488.00
2018-07-11T07:52:58.609Z,15224.00
2018-07-11T07:53:58.442Z,10292.00
2018-07-11T07:54:58.500Z,6076.00
2018-07-11T07:55:59.000Z,4584.00
2018-07-11T07:56:59.173Z,4148.00
2018-07-11T07:57:59.477Z,4080.00
2018-07-11T07:58:59.666Z,4184.00
2018-07-11T08:00:00.653Z,4496.00
2018-07-11T08:00:59.844Z,4572.00
2018-07-11T08:01:59.980Z,4600.00
2018-07-11T08:02:59.996Z,4556.00
2018-07-11T08:04:00.223Z,5592.00
2018-07-11T08:05:00.358Z,6912.00
2018-07-11T08:06:00.860Z,6660.00
2018-07-11T08:07:00.624Z,5780.00
2018-07-11T08:08:00.765Z,5892.00
2018-07-11T08:09:01.033Z,8896.00
2018-07-11T08:10:00.947Z,22656.00
2018-07-11T08:11:00.925Z,18848.00
2018-07-11T08:12:01.381Z,19680.00
2018-07-11T08:13:01.579Z,16304.00
2018-07-11T08:14:01.690Z,19520.00
2018-07-11T08:15:01.893Z,21024.00
2018-07-11T08:16:02.152Z,32224.00
2018-07-11T08:17:02.094Z,23584.00
2018-07-11T08:18:01.986Z,17440.00
2018-07-11T08:19:02.487Z,66176.00
2018-07-11T08:20:02.622Z,35648.00
2018-07-11T08:21:02.795Z,29440.00
2018-07-11T08:22:02.976Z,37952.00
2018-07-11T08:23:03.179Z,51456.00
2018-07-11T08:24:02.864Z,77152.00
2018-07-11T08:25:03.177Z,116992.00
2018-07-11T08:26:03.403Z,113792.00
2018-07-11T08:27:04.820Z,114080.00
2018-07-11T08:28:04.868Z,108832.00
2018-07-11T08:29:03.983Z,109440.00
2018-07-11T08:30:04.119Z,109504.00
2018-07-11T08:31:04.336Z,106112.00
2018-07-11T08:32:05.511Z,103456.00
2018-07-11T08:33:04.816Z,103072.00
2018-07-11T08:34:05.137Z,102272.00
2018-07-11T08:35:05.094Z,105280.00
2018-07-11T08:36:05.566Z,102496.00
2018-07-11T08:37:05.617Z,92768.00
2018-07-11T08:38:05.501Z,97856.00
2018-07-11T08:39:06.142Z,99552.00
2018-07-11T08:40:05.903Z,97248.00
2018-07-11T08:41:06.117Z,94912.00
2018-07-11T08:42:06.521Z,92608.00
2018-07-11T08:43:06.527Z,87040.00
2018-07-11T08:44:06.840Z,91360.00
2018-07-11T08:45:07.290Z,92000.00
2018-07-11T08:46:07.844Z,90080.00
2018-07-11T08:47:07.805Z,90432.00
2018-07-11T08:48:07.168Z,53536.00
2018-07-11T08:49:07.604Z,86464.00
2018-07-11T08:50:07.946Z,19296.00
2018-07-11T08:51:07.805Z,19028.00
2018-07-11T08:52:07.848Z,47456.00
2018-07-11T08:53:08.219Z,41088.00
2018-07-11T08:54:08.823Z,30496.00
2018-07-11T08:55:08.785Z,36256.00
2018-07-11T08:56:08.860Z,40608.00
2018-07-11T08:57:08.800Z,40544.00
2018-07-11T08:58:10.385Z,38720.00
2018-07-11T08:59:09.299Z,39072.00
2018-07-11T09:00:09.480Z,37184.00
2018-07-11T09:01:09.354Z,36384.00
2018-07-11T09:02:10.090Z,36544.00
2018-07-11T09:03:10.042Z,36288.00
2018-07-11T09:04:10.232Z,8088.00
2018-07-11T09:05:10.517Z,27328.00
2018-07-11T09:06:10.388Z,35168.00
2018-07-11T09:07:10.617Z,27136.00
2018-07-11T09:08:11.177Z,35840.00
2018-07-11T09:09:11.144Z,13424.00
2018-07-11T09:10:11.447Z,13060.00
2018-07-11T09:11:11.713Z,12868.00
2018-07-11T09:12:11.629Z,13396.00
2018-07-11T09:13:11.829Z,15900.00
2018-07-11T09:14:11.907Z,14664.00
2018-07-11T09:15:11.983Z,22048.00
2018-07-11T09:16:12.773Z,12568.00
2018-07-11T09:17:13.440Z,9400.00
2018-07-11T09:18:13.665Z,7092.00
2018-07-11T09:19:13.014Z,6492.00
2018-07-11T09:20:13.021Z,6620.00
2018-07-11T09:21:13.037Z,7316.00
2018-07-11T09:22:13.278Z,7936.00
2018-07-11T09:23:13.427Z,8044.00
2018-07-11T09:24:13.433Z,14052.00
2018-07-11T09:25:13.953Z,7856.00
2018-07-11T09:26:13.987Z,7168.00
2018-07-11T09:27:14.220Z,5372.00
2018-07-11T09:28:14.167Z,4832.00
2018-07-11T09:29:14.523Z,4372.00
2018-07-11T09:30:14.652Z,4200.00
2018-07-11T09:31:14.689Z,4176.00
2018-07-11T09:32:15.365Z,4104.00
2018-07-11T09:33:15.253Z,3952.00
2018-07-11T09:34:15.330Z,3796.00
2018-07-11T09:35:15.474Z,3588.00
2018-07-11T09:36:15.671Z,3368.00
2018-07-11T09:37:15.503Z,3276.00
2018-07-11T09:38:15.701Z,3212.00
2018-07-11T09:39:15.891Z,3180.00
2018-07-11T09:40:16.299Z,3280.00
2018-07-11T09:41:16.684Z,3384.00
2018-07-11T09:42:16.492Z,3364.00
2018-07-11T09:43:17.208Z,3280.00
2018-07-11T09:44:17.264Z,3060.00
2018-07-11T09:45:16.984Z,2784.00
2018-07-11T09:46:17.159Z,2784.00
2018-07-11T09:47:17.371Z,2992.00
2018-07-11T09:48:17.750Z,3336.00
2018-07-11T09:49:17.732Z,3672.00
2018-07-11T09:50:18.172Z,3944.00
2018-07-11T09:51:18.041Z,4164.00
2018-07-11T09:52:18.353Z,4268.00
2018-07-11T09:53:18.726Z,4256.00
2018-07-11T09:54:18.516Z,4196.00
2018-07-11T09:55:18.702Z,4164.00
2018-07-11T09:56:18.900Z,4200.00
2018-07-11T09:57:19.117Z,4288.00
2018-07-11T09:58:19.318Z,4428.00
2018-07-11T09:59:19.778Z,4608.00
2018-07-11T10:00:19.612Z,4796.00
2018-07-11T10:01:19.799Z,4960.00
2018-07-11T10:02:19.991Z,5120.00
2018-07-11T10:03:20.185Z,5272.00
2018-07-11T10:04:20.367Z,5492.00
2018-07-11T10:05:20.549Z,5904.00
2018-07-11T10:06:20.729Z,6528.00
2018-07-11T10:07:20.921Z,7040.00
2018-07-11T10:08:21.103Z,7340.00
2018-07-11T10:09:21.290Z,7572.00
2018-07-11T10:10:21.479Z,7908.00
2018-07-11T10:11:21.665Z,8368.00
2018-07-11T10:12:22.474Z,9472.00
2018-07-11T10:13:22.046Z,12340.00
2018-07-11T10:14:22.196Z,14432.00
2018-07-11T10:15:22.416Z,15672.00
2018-07-11T10:16:22.616Z,14568.00
2018-07-11T10:17:22.815Z,16288.00
2018-07-11T10:18:22.997Z,14032.00
2018-07-11T10:19:23.175Z,12568.00
2018-07-11T10:20:23.353Z,13116.00
2018-07-11T10:21:23.544Z,17216.00
2018-07-11T10:22:24.169Z,17216.00
2018-07-11T10:23:23.939Z,16024.00
2018-07-11T10:24:24.133Z,15008.00
2018-07-11T10:25:24.321Z,14108.00
2018-07-11T10:26:24.504Z,14052.00
2018-07-11T10:27:24.686Z,14860.00
2018-07-11T10:28:24.887Z,13944.00
2018-07-11T10:29:25.080Z,13528.00
2018-07-11T10:30:25.271Z,12528.00
2018-07-11T10:31:25.496Z,11896.00
2018-07-11T10:32:25.660Z,11964.00
2018-07-11T10:33:25.840Z,12796.00
2018-07-11T10:34:26.023Z,14524.00
2018-07-11T10:35:26.207Z,14656.00
2018-07-11T10:36:26.395Z,13664.00
2018-07-11T10:37:26.579Z,13208.00
2018-07-11T10:38:26.762Z,13144.00
2018-07-11T10:39:26.968Z,12928.00
2018-07-11T10:40:27.153Z,12660.00
2018-07-11T10:41:27.335Z,12480.00
2018-07-11T10:42:27.527Z,11632.00
2018-07-11T10:43:27.709Z,11340.00
2018-07-11T10:44:27.890Z,10624.00
2018-07-11T10:45:28.092Z,9844.00
2018-07-11T10:46:28.285Z,8716.00
2018-07-11T10:47:28.476Z,8656.00
2018-07-11T10:48:28.665Z,8224.00
2018-07-11T10:49:28.854Z,7756.00
2018-07-11T10:50:29.046Z,7268.00
2018-07-11T10:51:29.232Z,6700.00
2018-07-11T10:52:29.417Z,6004.00
2018-07-11T10:53:29.630Z,5760.00
2018-07-11T10:54:29.811Z,5748.00
2018-07-11T10:55:30.116Z,5664.00
2018-07-11T10:56:30.297Z,5532.00
2018-07-11T10:57:30.344Z,5464.00
2018-07-11T10:58:30.480Z,5660.00
2018-07-11T10:59:30.673Z,5696.00
2018-07-11T11:00:36.656Z,5940.00
2018-07-11T11:01:31.114Z,6168.00
2018-07-11T11:02:31.233Z,6544.00
2018-07-11T11:03:31.418Z,6968.00
2018-07-11T11:04:31.601Z,7280.00
2018-07-11T11:05:31.780Z,7480.00
2018-07-11T11:06:31.987Z,7632.00
2018-07-11T11:07:32.184Z,7952.00
2018-07-11T11:08:32.371Z,8292.00
2018-07-11T11:09:32.570Z,8656.00
2018-07-11T11:10:32.758Z,9048.00
2018-07-11T11:11:33.007Z,9348.00
2018-07-11T11:12:33.931Z,9516.00
2018-07-11T11:13:33.390Z,9748.00
2018-07-11T11:14:33.624Z,10220.00
2018-07-11T11:15:33.776Z,10820.00
2018-07-11T11:16:33.960Z,11080.00
2018-07-11T11:17:34.146Z,11252.00
2018-07-11T11:18:34.341Z,11228.00
2018-07-11T11:19:34.531Z,10960.00
2018-07-11T11:20:35.096Z,10236.00
2018-07-11T11:21:35.262Z,10124.00
2018-07-11T11:22:35.349Z,9872.00
2018-07-11T11:23:35.627Z,9224.00
2018-07-11T11:24:35.576Z,9312.00
2018-07-11T11:25:36.156Z,9028.00
2018-07-11T11:26:35.653Z,8760.00
2018-07-11T11:27:35.848Z,8204.00
2018-07-11T11:28:38.119Z,8404.00
2018-07-11T11:29:38.343Z,8720.00
2018-07-11T11:30:37.063Z,9112.00
2018-07-11T11:31:36.585Z,9164.00
2018-07-11T11:32:37.012Z,9100.00
2018-07-11T11:33:37.312Z,9268.00
2018-07-11T11:34:37.589Z,8892.00
2018-07-11T11:35:37.429Z,8756.00
2018-07-11T11:36:37.834Z,8752.00
2018-07-11T11:37:37.729Z,8896.00
2018-07-11T11:38:37.773Z,8904.00
2018-07-11T11:39:38.449Z,8692.00
2018-07-11T11:40:38.232Z,8308.00
2018-07-11T11:41:39.392Z,7832.00
2018-07-11T11:42:38.637Z,7452.00
2018-07-11T11:43:38.789Z,7368.00
2018-07-11T11:44:39.233Z,7524.00
2018-07-11T11:45:39.128Z,8092.00
2018-07-11T11:46:39.317Z,8472.00
2018-07-11T11:47:39.511Z,8188.00
2018-07-11T11:48:39.755Z,8188.00
2018-07-11T11:49:39.828Z,8600.00
2018-07-11T11:50:40.015Z,8520.00
2018-07-11T11:51:40.192Z,8616.00
2018-07-11T11:52:40.405Z,8752.00
2018-07-11T11:53:40.903Z,8404.00
2018-07-11T11:54:40.747Z,7644.00
2018-07-11T11:55:40.936Z,7136.00
2018-07-11T11:56:41.137Z,6920.00
2018-07-11T11:57:41.358Z,6692.00
2018-07-11T11:58:41.833Z,6652.00
2018-07-11T11:59:41.987Z,6744.00
2018-07-11T12:00:42.207Z,6752.00
2018-07-11T12:01:42.689Z,6868.00
2018-07-11T12:02:42.638Z,7328.00
2018-07-11T12:03:43.064Z,7752.00
2018-07-11T12:04:43.164Z,8468.00
2018-07-11T12:05:43.626Z,8824.00
2018-07-11T12:06:44.567Z,8612.00
2018-07-11T12:07:43.758Z,8584.00
2018-07-11T12:08:43.575Z,8696.00
2018-07-11T12:09:45.927Z,8232.00
2018-07-11T12:10:44.758Z,7704.00
2018-07-11T12:11:44.086Z,7484.00
2018-07-11T12:12:44.376Z,7368.00
2018-07-11T12:13:44.408Z,7576.00
2018-07-11T12:14:44.585Z,7944.00
2018-07-11T12:15:44.809Z,8476.00
2018-07-11T12:16:45.058Z,8988.00
2018-07-11T12:17:45.084Z,9448.00
2018-07-11T12:18:45.298Z,9684.00
2018-07-11T12:19:45.430Z,9728.00
2018-07-11T12:20:45.581Z,9644.00
2018-07-11T12:21:45.654Z,9496.00
2018-07-11T12:22:45.878Z,9172.00
2018-07-11T12:23:46.194Z,8992.00
2018-07-11T12:24:46.205Z,9104.00
2018-07-11T12:25:46.418Z,9004.00